Time;durP1;ratioP1;P1;durP2;ratioP2;P2;SDS_P1;SDS_P2;PMS_P1;PMS_P2;Temp;Humidity;BMP_temperature;BMP_pressure;BME280_temperature;BME280_humidity;BME280_pressure;Samples;Min_cycle;Max_cycle;Signal;HPM_P1;HPM_P2
2022/01/08 00:00:27;;;;;;;21.70;12.80;;;;;;;3.71;100.00;101702.19;4879387;29;20056;-70
2022/01/08 00:03:13;;;;;;;22.38;13.10;;;;;;;4.13;100.00;101704.13;4867869;29;20025;-70
2022/01/08 00:05:58;;;;;;;22.50;13.75;;;;;;;3.77;100.00;101698.03;4873807;29;20044;-70
2022/01/08 00:08:44;;;;;;;22.50;12.60;;;;;;;3.43;100.00;101698.03;4861467;29;20040;-70
2022/01/08 00:11:30;;;;;;;22.77;12.80;;;;;;;3.83;100.00;101694.75;4861926;29;20125;-70
2022/01/08 00:14:16;;;;;;;21.17;13.13;;;;;;;3.74;100.00;101686.75;4862204;29;20045;-71
2022/01/08 00:17:02;;;;;;;20.33;12.82;;;;;;;4.04;100.00;101687.47;4862476;29;20098;-71
2022/01/08 00:23:30;;;;;;;21.83;12.68;;;;;;;3.78;100.00;101681.66;4862336;29;20033;-71
2022/01/08 00:26:16;;;;;;;20.35;12.25;;;;;;;3.39;100.00;101685.81;4861972;29;20025;-70
2022/01/08 00:29:02;;;;;;;21.73;12.80;;;;;;;3.84;100.00;101674.03;4864968;29;20432;-71
2022/01/08 00:31:48;;;;;;;23.98;12.73;;;;;;;3.77;100.00;101674.72;4865438;29;20030;-70
2022/01/08 00:34:34;;;;;;;21.58;12.90;;;;;;;3.84;100.00;101671.44;4865840;29;20098;-71
2022/01/08 00:37:19;;;;;;;19.00;12.18;;;;;;;3.88;100.00;101674.97;4864635;29;20037;-70
2022/01/08 00:40:07;;;;;;;21.15;12.65;;;;;;;4.03;100.00;101676.22;4865647;29;20034;-70
2022/01/08 00:42:53;;;;;;;21.38;12.35;;;;;;;4.27;100.00;101679.38;4865252;29;20072;-71
2022/01/08 00:45:39;;;;;;;24.40;12.48;;;;;;;4.34;100.00;101670.06;4865122;29;20102;-71
2022/01/08 00:48:24;;;;;;;18.50;11.25;;;;;;;3.96;100.00;101663.97;4864653;29;20025;-70
2022/01/08 00:51:11;;;;;;;19.90;11.10;;;;;;;3.94;100.00;101664.78;4865212;29;20029;-71
2022/01/08 00:53:57;;;;;;;19.70;11.52;;;;;;;4.01;100.00;101664.94;4864526;29;20045;-71
2022/01/08 00:56:42;;;;;;;19.02;11.90;;;;;;;3.90;100.00;101662.94;4852166;29;20459;-72
2022/01/08 00:59:28;;;;;;;18.25;11.25;;;;;;;3.70;100.00;101656.41;4865072;29;20490;-72
2022/01/08 01:02:14;;;;;;;19.85;12.38;;;;;;;3.63;100.00;101659.66;4865954;29;20060;-70
2022/01/08 01:05:00;;;;;;;21.23;11.85;;;;;;;4.03;100.00;101655.47;4866481;29;20097;-72
2022/01/08 01:07:45;;;;;;;21.13;11.90;;;;;;;3.86;100.00;101651.63;4863972;29;20446;-71
2022/01/08 01:10:31;;;;;;;18.25;11.40;;;;;;;3.65;100.00;101655.38;4865397;29;20033;-70
2022/01/08 01:13:17;;;;;;;20.48;12.48;;;;;;;3.63;100.00;101642.41;4851179;29;20356;-70
2022/01/08 01:16:03;;;;;;;18.45;12.18;;;;;;;3.62;100.00;101643.25;4864234;29;20041;-70
2022/01/08 01:18:49;;;;;;;18.45;12.25;;;;;;;3.55;100.00;101640.47;4865687;29;20045;-71
2022/01/08 01:21:35;;;;;;;20.23;12.98;;;;;;;3.58;100.00;101638.81;4864770;29;20101;-70
2022/01/08 01:24:24;;;;;;;19.35;11.80;;;;;;;3.35;100.00;101642.56;4864202;29;20090;-71
2022/01/08 01:30:25;;;;;;;20.13;11.85;;;;;;;3.48;100.00;101642.03;4865073;29;20080;-71
2022/01/08 01:48:36;;;;;;;22.90;13.70;;;;;;;3.23;100.00;101610.28;4864722;29;20458;-70
2022/01/08 01:51:25;;;;;;;21.85;13.02;;;;;;;3.29;100.00;101600.94;4864184;29;20518;-69
2022/01/08 01:54:11;;;;;;;20.45;12.88;;;;;;;3.05;100.00;101613.25;4864218;29;20371;-71
2022/01/08 01:56:59;;;;;;;22.05;13.02;;;;;;;2.99;100.00;101607.03;4864429;29;20041;-71
2022/01/08 01:59:45;;;;;;;22.30;12.93;;;;;;;3.12;100.00;101601.34;4863704;29;20081;-71
2022/01/08 02:02:31;;;;;;;21.15;13.25;;;;;;;3.08;100.00;101597.81;4864498;29;20025;-71
2022/01/08 02:05:17;;;;;;;24.58;13.95;;;;;;;3.02;100.00;101592.44;4863250;29;20045;-71
2022/01/08 02:08:03;;;;;;;25.10;14.32;;;;;;;2.95;100.00;101595.72;4864317;29;20029;-70
2022/01/08 02:10:48;;;;;;;23.58;13.65;;;;;;;2.70;100.00;101587.25;4863835;29;20547;-71
2022/01/08 02:13:35;;;;;;;21.67;13.15;;;;;;;2.75;100.00;101589.13;4863684;29;20049;-71
2022/01/08 02:16:21;;;;;;;25.17;14.10;;;;;;;3.20;100.00;101592.94;4863462;29;20033;-70
2022/01/08 02:19:06;;;;;;;26.48;14.93;;;;;;;3.29;100.00;101580.22;4863489;29;20037;-70
2022/01/08 02:21:58;;;;;;;26.52;14.77;;;;;;;2.84;100.00;101575.56;4863883;29;20025;-71
2022/01/08 02:30:08;;;;;;;27.33;15.07;;;;;;;2.62;100.00;101579.25;4880643;29;20105;-70
2022/01/08 02:32:53;;;;;;;26.65;15.15;;;;;;;2.62;100.00;101580.97;4868784;29;20029;-70
2022/01/08 02:35:39;;;;;;;25.85;14.95;;;;;;;2.62;100.00;101584.44;4881156;29;20044;-70
2022/01/08 02:38:25;;;;;;;23.30;13.75;;;;;;;2.70;100.00;101579.50;4869294;29;20029;-70
2022/01/08 02:41:11;;;;;;;25.50;15.00;;;;;;;2.62;100.00;101580.97;4882468;29;20470;-71
2022/01/08 02:43:57;;;;;;;27.23;15.52;;;;;;;2.47;100.00;101573.69;4881435;29;20366;-70
2022/01/08 02:46:43;;;;;;;29.25;15.85;;;;;;;2.49;100.00;101572.00;4881939;29;20347;-71
2022/01/08 02:49:33;;;;;;;30.05;16.00;;;;;;;2.46;100.00;101573.63;4881605;29;20055;-70
2022/01/08 02:52:20;;;;;;;26.92;15.45;;;;;;;2.44;100.00;101567.50;4881223;29;20125;-70
2022/01/08 02:55:07;;;;;;;25.88;15.15;;;;;;;2.71;100.00;101570.88;4880944;29;20088;-70
2022/01/08 02:57:52;;;;;;;27.67;15.68;;;;;;;2.68;100.00;101556.16;4881119;29;20466;-70
2022/01/08 03:00:38;;;;;;;26.70;15.65;;;;;;;2.81;100.00;101562.56;4880925;29;20419;-70
2022/01/08 03:03:24;;;;;;;27.00;16.02;;;;;;;2.78;100.00;101565.06;4881024;29;20037;-71
2022/01/08 03:06:10;;;;;;;30.67;17.55;;;;;;;2.92;100.00;101558.53;4880324;29;20021;-70
2022/01/08 03:08:56;;;;;;;31.58;17.27;;;;;;;2.36;100.00;101554.38;4881044;29;20025;-70
2022/01/08 03:11:43;;;;;;;26.73;15.73;;;;;;;2.64;100.00;101556.91;4868304;29;20029;-70
2022/01/08 03:14:29;;;;;;;31.45;17.40;;;;;;;2.67;100.00;101558.69;4880993;29;20036;-71
2022/01/08 03:17:15;;;;;;;31.15;16.88;;;;;;;2.71;100.00;101553.66;4880552;29;20062;-70
2022/01/08 03:20:05;;;;;;;31.70;17.48;;;;;;;2.87;100.00;101548.06;4880828;29;20029;-70
2022/01/08 03:22:51;;;;;;;36.50;18.52;;;;;;;2.82;100.00;101544.47;4880935;29;20082;-70
2022/01/08 03:25:37;;;;;;;34.70;18.40;;;;;;;2.76;100.00;101540.84;4880959;29;20029;-70
2022/01/08 03:28:22;;;;;;;34.15;18.52;;;;;;;2.50;100.00;101549.59;4880441;29;20072;-69
2022/01/08 03:31:08;;;;;;;36.88;18.02;;;;;;;2.58;100.00;101537.75;4880200;29;20025;-70
2022/01/08 03:33:54;;;;;;;28.05;16.65;;;;;;;2.67;100.00;101541.47;4880087;29;20055;-70
2022/01/08 03:36:40;;;;;;;30.85;18.00;;;;;;;2.65;100.00;101545.72;4879576;29;20044;-71
2022/01/08 03:39:26;;;;;;;32.22;17.45;;;;;;;2.34;100.00;101535.38;4868205;29;20036;-70
2022/01/08 03:42:11;;;;;;;34.85;18.40;;;;;;;2.82;100.00;101539.28;4880261;29;20113;-71
2022/01/08 03:44:58;;;;;;;30.33;17.17;;;;;;;3.01;100.00;101522.56;4880519;29;20028;-70
2022/01/08 03:48:46;;;;;;;36.03;18.38;;;;;;;3.10;100.00;101522.78;4880941;29;20036;-70
2022/01/08 03:50:59;;;;;;;33.97;18.88;;;;;;;2.80;100.00;101520.28;4877808;29;20037;-70
2022/01/08 03:53:44;;;;;;;33.45;18.33;;;;;;;2.88;100.00;101534.28;4880596;29;20435;-70
2022/01/08 03:56:30;;;;;;;32.15;18.58;;;;;;;2.74;100.00;101524.41;4880493;29;20033;-71
2022/01/08 03:59:16;;;;;;;34.03;18.48;;;;;;;2.83;100.00;101524.66;4880082;29;20028;-71
2022/01/08 04:02:02;;;;;;;35.60;20.00;;;;;;;2.86;100.00;101524.72;4880202;29;20522;-70
2022/01/08 04:04:48;;;;;;;31.15;18.27;;;;;;;2.65;100.00;101534.53;4880864;29;20117;-70
2022/01/08 04:07:34;;;;;;;33.78;18.65;;;;;;;2.67;100.00;101538.00;4879804;29;20039;-71
2022/01/08 04:25:28;;;;;;;31.73;18.58;;;;;;;2.91;100.00;101520.53;5264260;23;19923;-70
2022/01/08 04:28:14;;;;;;;28.02;16.80;;;;;;;2.80;100.00;101521.97;4880051;29;20052;-70
2022/01/08 04:31:00;;;;;;;31.73;17.45;;;;;;;2.86;100.00;101516.97;4880247;29;20037;-70
2022/01/08 04:33:46;;;;;;;31.95;17.83;;;;;;;2.95;100.00;101509.44;4880084;29;20120;-70
2022/01/08 04:36:32;;;;;;;27.35;15.30;;;;;;;2.61;100.00;101514.56;4880274;29;20032;-70
2022/01/08 04:39:18;;;;;;;31.20;17.65;;;;;;;2.78;100.00;101518.47;4879227;29;20480;-70
2022/01/08 04:42:03;;;;;;;30.65;16.83;;;;;;;2.79;100.00;101515.06;4879698;29;20025;-69
2022/01/08 05:00:40;;;;;;;32.40;18.65;;;;;;;2.87;100.00;101506.66;5008100;23;20021;-69
2022/01/08 05:03:26;;;;;;;33.97;18.73;;;;;;;3.02;100.00;101508.75;4897649;29;20427;-69
2022/01/08 05:06:11;;;;;;;32.40;18.42;;;;;;;3.03;100.00;101503.63;4891060;29;20124;-70
2022/01/08 05:08:57;;;;;;;31.13;18.58;;;;;;;2.90;100.00;101501.53;4879884;29;20509;-69
2022/01/08 05:11:43;;;;;;;31.58;19.25;;;;;;;2.83;100.00;101503.94;4866058;29;20185;-69
2022/01/08 05:14:29;;;;;;;32.90;19.05;;;;;;;2.76;100.00;101510.69;4882146;29;20057;-70
2022/01/08 05:17:14;;;;;;;29.30;17.98;;;;;;;2.76;100.00;101502.91;4883256;29;20036;-70
2022/01/08 05:20:04;;;;;;;31.75;19.05;;;;;;;2.85;100.00;101494.53;4883009;29;20041;-70
2022/01/08 05:22:52;;;;;;;35.95;20.08;;;;;;;2.83;100.00;101491.00;4883135;29;20036;-71
2022/01/08 05:25:39;;;;;;;36.42;21.08;;;;;;;2.66;100.00;101476.75;4883607;29;20025;-69
2022/01/08 05:28:24;;;;;;;32.10;19.10;;;;;;;2.65;100.00;101493.97;4884430;29;20040;-70
2022/01/08 05:31:12;;;;;;;35.58;20.85;;;;;;;2.66;100.00;101484.53;4882414;29;20033;-70
2022/01/08 05:33:57;;;;;;;33.92;21.50;;;;;;;2.77;100.00;101496.03;4883186;29;20047;-69
2022/01/08 05:36:43;;;;;;;42.03;22.55;;;;;;;2.75;100.00;101490.81;4882529;29;20028;-70
2022/01/08 05:39:29;;;;;;;37.05;21.17;;;;;;;2.73;100.00;101492.47;4882325;29;20029;-69
2022/01/08 05:42:15;;;;;;;42.67;23.10;;;;;;;2.80;100.00;101493.50;4882795;29;20025;-71
2022/01/08 05:45:01;;;;;;;40.53;21.90;;;;;;;2.70;100.00;101487.22;4882698;29;20025;-70
2022/01/08 05:47:46;;;;;;;36.65;21.08;;;;;;;2.70;100.00;101487.22;4882853;29;20029;-70
2022/01/08 05:50:32;;;;;;;35.58;20.70;;;;;;;2.76;100.00;101479.63;4882731;29;20020;-70
2022/01/08 05:53:19;;;;;;;40.97;22.33;;;;;;;2.84;100.00;101485.00;4882574;29;20036;-69
2022/01/08 05:56:05;;;;;;;37.80;20.95;;;;;;;2.94;100.00;101481.81;4881976;29;20055;-71
2022/01/08 05:58:51;;;;;;;33.60;20.23;;;;;;;3.15;100.00;101480.63;4883322;29;20061;-70
2022/01/08 06:15:39;;;;;;;33.83;20.08;;;;;;;3.12;100.00;101472.78;5614828;23;19927;-71
2022/01/08 06:18:25;;;;;;;30.25;18.73;;;;;;;2.93;100.00;101475.75;4881662;29;20115;-71
2022/01/08 06:21:11;;;;;;;37.60;20.60;;;;;;;2.97;100.00;101469.81;4881998;29;20101;-70
2022/01/08 06:23:57;;;;;;;30.55;18.42;;;;;;;2.89;100.00;101476.50;4881212;29;20033;-70
2022/01/08 06:26:43;;;;;;;36.92;20.92;;;;;;;3.01;100.00;101476.81;4882976;29;20104;-70
2022/01/08 06:29:28;;;;;;;27.48;17.23;;;;;;;2.96;100.00;101473.25;4882850;29;20025;-70
2022/01/08 06:32:15;;;;;;;31.02;18.83;;;;;;;3.52;100.00;101484.94;4881667;29;20025;-71
2022/01/08 06:35:01;;;;;;;30.23;18.38;;;;;;;3.24;100.00;101464.44;4881798;29;20116;-71
2022/01/08 06:37:46;;;;;;;33.83;22.13;;;;;;;3.37;100.00;101469.03;4881669;29;20033;-71
2022/01/08 06:40:32;;;;;;;33.40;19.83;;;;;;;3.40;100.00;101463.94;4881921;29;20041;-70
2022/01/08 06:43:18;;;;;;;38.67;22.10;;;;;;;3.19;100.00;101466.03;4881205;29;20041;-70
2022/01/08 06:46:04;;;;;;;38.83;22.00;;;;;;;3.19;100.00;101460.84;4881853;29;20033;-69
2022/01/08 06:48:50;;;;;;;35.58;21.23;;;;;;;3.28;100.00;101467.13;4881011;29;20115;-69
2022/01/08 06:51:36;;;;;;;36.25;20.45;;;;;;;3.21;100.00;101454.00;4881870;29;20125;-70
2022/01/08 06:54:21;;;;;;;36.33;21.35;;;;;;;3.27;100.00;101449.84;4880953;29;20481;-70
2022/01/08 06:57:07;;;;;;;37.53;22.02;;;;;;;3.25;100.00;101448.94;4882023;29;20101;-70
2022/01/08 06:59:53;;;;;;;34.20;21.15;;;;;;;3.38;100.00;101450.97;4881697;29;20048;-70
2022/01/08 07:02:38;;;;;;;39.55;22.58;;;;;;;3.50;100.00;101461.59;4881984;29;20032;-71
2022/01/08 07:05:24;;;;;;;36.20;21.50;;;;;;;3.48;100.00;101459.81;4881989;29;20060;-70
2022/01/08 07:08:10;;;;;;;37.97;22.25;;;;;;;3.48;100.00;101457.22;4882190;29;20028;-71
2022/01/08 07:10:56;;;;;;;41.95;23.77;;;;;;;3.34;100.00;101459.50;4880305;29;20044;-71
2022/01/08 07:13:45;;;;;;;39.97;22.42;;;;;;;3.39;100.00;101455.31;4880877;29;20040;-71
2022/01/08 07:16:31;;;;;;;35.20;21.35;;;;;;;3.64;100.00;101452.44;4881342;29;20504;-70
2022/01/08 07:19:18;;;;;;;36.60;21.95;;;;;;;3.73;100.00;101444.84;4881143;29;20434;-70
2022/01/08 07:22:04;;;;;;;33.08;20.75;;;;;;;3.84;100.00;101440.78;4881011;29;20021;-71
2022/01/08 07:24:49;;;;;;;32.92;20.45;;;;;;;3.97;100.00;101442.78;4867485;29;20029;-71
2022/01/08 07:27:36;;;;;;;29.40;19.35;;;;;;;4.18;100.00;101442.34;4880660;29;20029;-70
2022/01/08 07:30:22;;;;;;;33.15;20.27;;;;;;;3.73;100.00;101447.44;4881782;29;20113;-71
2022/01/08 07:33:08;;;;;;;31.05;18.65;;;;;;;3.82;100.00;101446.78;4881347;29;20029;-71
2022/01/08 07:35:53;;;;;;;28.50;18.23;;;;;;;3.72;100.00;101437.03;4880081;29;20427;-71
2022/01/08 07:39:22;;;;;;;28.63;18.17;;;;;;;4.11;100.00;101433.53;4880662;29;20057;-71
2022/01/08 07:42:08;;;;;;;29.58;17.63;;;;;;;3.77;100.00;101430.22;4880840;29;20108;-70
2022/01/08 07:44:54;;;;;;;32.40;19.40;;;;;;;3.74;100.00;101415.50;4881213;29;20360;-70
2022/01/08 07:47:40;;;;;;;31.70;19.25;;;;;;;3.75;100.00;101416.38;4880364;29;20344;-71
2022/01/08 07:50:25;;;;;;;29.10;18.55;;;;;;;4.05;100.00;101417.00;4881280;29;20029;-70
2022/01/08 07:53:11;;;;;;;32.38;19.90;;;;;;;4.01;100.00;101423.84;4881221;29;20033;-71
2022/01/08 07:55:57;;;;;;;33.33;20.00;;;;;;;4.30;100.00;101416.66;4881074;29;20097;-70
2022/01/08 07:58:43;;;;;;;35.80;20.23;;;;;;;4.64;100.00;101413.78;4880171;29;20033;-71
2022/01/08 08:01:31;;;;;;;31.45;19.73;;;;;;;4.18;100.00;101406.03;4880875;29;20025;-70
2022/01/08 08:04:24;;;;;;;30.80;18.60;;;;;;;4.60;100.00;101404.22;4881291;29;20086;-69
2022/01/08 08:07:10;;;;;;;31.58;19.67;;;;;;;4.32;100.00;101402.84;4879971;29;20025;-70
2022/01/08 08:09:56;;;;;;;30.55;18.42;;;;;;;4.10;100.00;101413.66;4880453;29;20097;-70
2022/01/08 08:12:42;;;;;;;32.72;20.75;;;;;;;4.50;100.00;101412.66;4880965;29;20025;-70
2022/01/08 08:15:28;;;;;;;32.30;20.50;;;;;;;4.42;100.00;101414.28;4879416;29;20133;-70
2022/01/08 08:18:14;;;;;;;28.85;18.77;;;;;;;4.19;100.00;101411.22;4870072;29;20029;-70
2022/01/08 08:21:00;;;;;;;33.80;19.98;;;;;;;4.45;100.00;101410.00;4880648;29;20040;-70
2022/01/08 08:23:46;;;;;;;30.73;19.63;;;;;;;4.21;100.00;101409.56;4879626;29;20096;-71
2022/01/08 08:26:35;;;;;;;37.85;20.50;;;;;;;4.01;100.00;101422.97;4913322;23;20053;-71
2022/01/08 08:29:21;;;;;;;32.20;20.77;;;;;;;4.15;100.00;101409.41;4899351;29;20063;-70
2022/01/08 08:32:07;;;;;;;34.42;21.40;;;;;;;4.36;100.00;101404.66;4898331;29;20027;-70
2022/01/08 08:34:53;;;;;;;31.48;20.08;;;;;;;4.21;100.00;101388.81;4898100;29;20039;-70
2022/01/08 08:37:40;;;;;;;33.22;20.60;;;;;;;4.61;100.00;101398.16;4879771;29;20063;-70
2022/01/08 08:40:26;;;;;;;36.47;20.17;;;;;;;4.19;100.00;101385.28;4880264;29;20028;-71
2022/01/08 08:43:15;;;;;;;33.40;20.83;;;;;;;4.24;100.00;101375.91;4879646;29;20029;-71
2022/01/08 08:46:01;;;;;;;37.15;20.98;;;;;;;4.14;100.00;101381.75;4879110;29;20029;-70
2022/01/08 08:48:46;;;;;;;34.00;20.63;;;;;;;3.98;100.00;101363.31;4882824;29;20070;-71
2022/01/08 08:51:32;;;;;;;40.25;22.85;;;;;;;3.99;100.00;101363.31;4870284;29;20118;-70
2022/01/08 08:54:18;;;;;;;36.20;21.42;;;;;;;4.22;100.00;101354.25;4883205;29;20104;-70
2022/01/08 08:57:05;;;;;;;35.35;21.30;;;;;;;4.50;100.00;101338.31;4883838;29;20501;-70
2022/01/08 08:59:51;;;;;;;35.85;21.48;;;;;;;4.80;100.00;101359.59;4883153;29;20037;-70
2022/01/08 09:02:40;;;;;;;30.45;19.88;;;;;;;4.78;100.00;101352.59;4883477;29;20028;-71
2022/01/08 09:05:26;;;;;;;32.67;20.42;;;;;;;4.35;100.00;101356.19;4883073;29;20033;-71
2022/01/08 09:08:12;;;;;;;34.78;20.33;;;;;;;4.31;100.00;101357.00;4884103;29;20045;-70
2022/01/08 09:10:57;;;;;;;35.40;22.08;;;;;;;4.54;100.00;101355.69;4883469;29;20029;-70
2022/01/08 09:13:43;;;;;;;33.03;20.95;;;;;;;4.78;100.00;101350.00;4883401;29;20044;-71
2022/01/08 09:16:29;;;;;;;36.45;21.70;;;;;;;4.93;100.00;101342.47;4882411;29;20048;-70
2022/01/08 09:19:17;;;;;;;38.78;22.92;;;;;;;5.56;100.00;101335.56;4882663;29;20048;-70
2022/01/08 09:22:04;;;;;;;31.38;20.35;;;;;;;4.93;100.00;101327.75;4882848;29;20034;-70
2022/01/08 09:24:51;;;;;;;30.08;19.33;;;;;;;4.80;100.00;101324.97;4882700;29;20029;-70
2022/01/08 09:27:37;;;;;;;30.58;19.52;;;;;;;4.91;100.00;101324.25;4882431;29;20125;-70
2022/01/08 09:34:06;;;;;;;30.88;20.02;;;;;;;4.28;100.00;101324.94;4883147;29;20041;-71
2022/01/08 09:36:52;;;;;;;32.10;20.80;;;;;;;4.43;100.00;101325.22;4882433;29;20029;-70
2022/01/08 09:39:39;;;;;;;30.52;19.52;;;;;;;4.35;100.00;101314.69;4882784;29;20070;-70
2022/01/08 09:42:25;;;;;;;32.40;19.85;;;;;;;4.63;100.00;101309.09;4882002;29;20347;-70
2022/01/08 09:45:11;;;;;;;27.15;18.17;;;;;;;4.62;100.00;101301.28;4883090;29;20355;-71
2022/01/08 09:47:57;;;;;;;32.25;18.83;;;;;;;4.95;100.00;101301.84;4882094;29;20035;-70
2022/01/08 09:50:44;;;;;;;33.25;20.98;;;;;;;4.69;100.00;101298.84;4882859;29;20424;-69
2022/01/08 09:53:29;;;;;;;30.17;19.58;;;;;;;4.73;100.00;101292.84;4882684;29;20556;-70
2022/01/08 09:56:15;;;;;;;29.73;19.25;;;;;;;4.68;100.00;101294.50;4881535;29;20040;-70
2022/01/08 09:59:01;;;;;;;27.30;18.90;;;;;;;4.65;100.00;101291.84;4880893;29;20033;-71
2022/01/08 10:01:55;;;;;;;28.52;18.27;;;;;;;4.49;100.00;101289.00;4881890;29;20021;-70
2022/01/08 10:04:41;;;;;;;27.67;18.55;;;;;;;4.74;100.00;101292.00;4881878;29;20121;-71
2022/01/08 10:07:27;;;;;;;32.08;18.35;;;;;;;4.62;100.00;101281.41;4882273;29;20028;-70
2022/01/08 10:10:13;;;;;;;33.45;18.65;;;;;;;4.48;100.00;101280.34;4882186;29;20505;-71
2022/01/08 10:13:01;;;;;;;32.10;19.40;;;;;;;4.50;100.00;101278.63;4882375;29;20093;-71
2022/01/08 10:18:38;;;;;;;35.35;21.55;;;;;;;4.62;100.00;101272.75;5227032;23;20068;-71
2022/01/08 10:21:26;;;;;;;37.70;22.30;;;;;;;4.61;100.00;101274.50;4899926;29;20039;-70
2022/01/08 10:24:18;;;;;;;40.00;22.70;;;;;;;4.55;100.00;101273.53;4899768;29;20032;-71
2022/01/08 10:27:05;;;;;;;33.92;22.17;;;;;;;4.83;100.00;101271.34;4885643;29;20036;-71
2022/01/08 10:29:54;;;;;;;36.25;22.38;;;;;;;4.76;100.00;101266.06;4881514;29;20029;-71
2022/01/08 10:32:54;;;;;;;36.80;20.13;;;;;;;4.85;100.00;101255.81;4881704;29;20048;-72
2022/01/08 10:35:51;;;;;;;34.40;21.15;;;;;;;4.99;100.00;101251.69;4867848;29;20455;-71
2022/01/08 10:38:37;;;;;;;31.50;20.27;;;;;;;4.85;100.00;101241.13;4882357;29;20044;-70
2022/01/08 10:41:25;;;;;;;31.20;19.63;;;;;;;4.66;100.00;101238.22;4881272;29;20025;-71
2022/01/08 10:44:15;;;;;;;33.90;20.60;;;;;;;4.95;100.00;101237.78;4881697;29;20029;-71
2022/01/08 10:47:05;;;;;;;35.22;19.98;;;;;;;4.80;100.00;101242.78;4881294;29;20032;-71
2022/01/08 10:50:05;;;;;;;34.70;21.75;;;;;;;4.95;100.00;101240.38;4881125;29;20025;-71
2022/01/08 10:52:51;;;;;;;35.03;21.33;;;;;;;4.87;100.00;101249.78;4867906;29;20029;-70
2022/01/08 10:55:37;;;;;;;34.72;20.77;;;;;;;4.90;100.00;101228.19;4880965;29;20029;-69
2022/01/08 10:58:41;;;;;;;37.10;21.05;;;;;;;4.82;100.00;101228.09;4881599;29;20338;-70
2022/01/08 11:01:46;;;;;;;35.75;21.25;;;;;;;5.15;100.00;101222.47;4880898;29;20102;-70
2022/01/08 11:04:35;;;;;;;34.88;20.98;;;;;;;4.80;100.00;101222.00;4881012;29;20068;-70
2022/01/08 11:07:27;;;;;;;34.05;20.45;;;;;;;4.74;100.00;101224.50;4868191;29;20430;-70
2022/01/08 11:10:22;;;;;;;36.33;20.58;;;;;;;4.69;100.00;101220.09;4880966;29;20366;-71
2022/01/08 11:13:14;;;;;;;36.28;21.38;;;;;;;4.56;100.00;101213.88;4880711;29;20181;-70
2022/01/08 11:16:00;;;;;;;32.97;19.90;;;;;;;4.54;100.00;101219.88;4881103;29;20025;-70
2022/01/08 11:18:45;;;;;;;34.63;20.73;;;;;;;4.45;100.00;101222.34;4880113;29;20048;-71
2022/01/08 11:21:34;;;;;;;32.83;19.40;;;;;;;4.63;100.00;101212.25;4880765;29;20037;-70
2022/01/08 11:24:23;;;;;;;32.83;19.95;;;;;;;4.63;100.00;101205.31;4881359;29;20029;-71
2022/01/08 11:27:10;;;;;;;35.65;20.98;;;;;;;4.43;100.00;101209.34;4880700;29;20035;-71
2022/01/08 11:30:04;;;;;;;34.45;21.60;;;;;;;4.45;100.00;101206.78;4880525;29;20458;-69
2022/01/08 11:32:53;;;;;;;37.40;22.27;;;;;;;4.83;100.00;101198.66;4881113;29;20037;-73
2022/01/08 11:35:40;;;;;;;36.70;21.05;;;;;;;4.68;100.00;101195.91;4880438;29;20108;-71
2022/01/08 11:38:28;;;;;;;35.72;20.40;;;;;;;4.63;100.00;101194.94;4881040;29;20459;-70
2022/01/08 11:44:56;;;;;;;40.58;23.35;;;;;;;4.59;100.00;101181.91;4881067;29;20048;-69
2022/01/08 11:47:45;;;;;;;35.65;21.92;;;;;;;4.81;100.00;101176.16;4880109;29;20032;-70
2022/01/08 11:50:32;;;;;;;35.47;21.52;;;;;;;4.54;100.00;101171.47;4880783;29;20471;-70
2022/01/08 11:53:26;;;;;;;38.95;21.92;;;;;;;4.86;100.00;101172.75;4880476;29;20044;-69
2022/01/08 11:56:36;;;;;;;39.38;22.35;;;;;;;5.05;100.00;101158.28;4880307;29;20068;-69
2022/01/08 11:59:29;;;;;;;40.03;21.98;;;;;;;4.90;100.00;101152.88;4880681;29;20036;-69
2022/01/08 12:02:16;;;;;;;34.88;21.17;;;;;;;4.59;100.00;101140.41;4880871;29;20092;-71
2022/01/08 12:07:46;;;;;;;36.33;21.50;;;;;;;5.00;100.00;101142.66;5119738;23;20049;-71
2022/01/08 12:10:31;;;;;;;32.47;20.95;;;;;;;4.73;100.00;101133.66;4898985;29;20036;-70
2022/01/08 12:13:46;;;;;;;31.60;18.42;;;;;;;4.78;100.00;101127.66;4898320;29;20374;-70
2022/01/08 12:16:36;;;;;;;33.65;20.00;;;;;;;4.66;100.00;101127.50;4888125;29;20424;-69
2022/01/08 12:19:37;;;;;;;32.60;20.23;;;;;;;4.62;100.00;101120.53;4879765;29;20025;-69
2022/01/08 12:22:23;;;;;;;32.40;20.48;;;;;;;4.90;100.00;101116.53;4880917;29;20021;-70
2022/01/08 12:25:09;;;;;;;33.70;19.95;;;;;;;4.74;100.00;101122.41;4884187;29;20094;-70
2022/01/08 12:27:56;;;;;;;30.70;19.75;;;;;;;5.04;100.00;101110.69;4883744;29;20033;-70
2022/01/08 12:30:42;;;;;;;31.02;18.58;;;;;;;4.56;100.00;101109.22;4883694;29;20057;-70
2022/01/08 12:33:30;;;;;;;31.00;18.98;;;;;;;4.67;100.00;101105.88;4883747;29;20036;-69
2022/01/08 12:36:31;;;;;;;33.38;19.00;;;;;;;4.64;100.00;101108.47;4884148;29;20125;-69
2022/01/08 12:39:22;;;;;;;37.17;21.30;;;;;;;4.57;100.00;101106.66;4883683;29;20126;-71
2022/01/08 12:42:28;;;;;;;34.00;20.10;;;;;;;4.63;100.00;101111.91;4884157;29;20029;-72
2022/01/08 12:45:20;;;;;;;34.45;19.85;;;;;;;4.67;100.00;101105.03;4884010;29;20076;-70
2022/01/08 12:48:08;;;;;;;35.15;19.30;;;;;;;4.91;100.00;101103.59;4883647;29;20125;-69
2022/01/08 12:50:56;;;;;;;40.50;22.35;;;;;;;5.14;100.00;101098.63;4884857;29;20051;-70
2022/01/08 12:53:41;;;;;;;38.88;22.52;;;;;;;4.64;100.00;101097.22;4883355;29;20449;-71
2022/01/08 12:56:27;;;;;;;37.72;23.60;;;;;;;4.58;100.00;101095.41;4883360;29;20371;-70
2022/01/08 12:59:13;;;;;;;39.28;22.08;;;;;;;4.45;100.00;101087.44;4883308;29;20044;-70
2022/01/08 13:02:00;;;;;;;36.53;21.50;;;;;;;4.56;100.00;101086.75;4883340;29;20422;-70
2022/01/08 13:04:52;;;;;;;35.55;21.30;;;;;;;4.58;100.00;101090.22;4883639;29;20037;-69
2022/01/08 13:11:23;;;;;;;36.97;20.30;;;;;;;4.51;100.00;101077.16;4883504;29;20040;-70
2022/01/08 13:14:18;;;;;;;39.42;22.92;;;;;;;4.64;100.00;101076.44;4883319;29;20044;-70
2022/01/08 13:17:03;;;;;;;41.13;22.38;;;;;;;4.65;100.00;101076.47;4882797;29;20481;-70
2022/01/08 13:23:32;;;;;;;46.53;26.05;;;;;;;4.92;100.00;101069.00;4883526;29;20471;-73
2022/01/08 13:26:37;;;;;;;51.08;26.20;;;;;;;4.93;100.00;101068.16;4883339;29;20068;-71
2022/01/08 13:29:31;;;;;;;48.92;25.67;;;;;;;4.84;100.00;101073.25;4884130;29;20044;-74
2022/01/08 13:36:12;;;;;;;54.22;29.60;;;;;;;5.09;100.00;101071.75;4882429;29;20454;-71
2022/01/08 13:39:00;;;;;;;50.35;28.95;;;;;;;4.83;100.00;101061.09;4883273;29;20087;-72
2022/01/08 13:41:45;;;;;;;43.22;24.92;;;;;;;5.05;100.00;101052.69;4883421;29;20025;-73
2022/01/08 13:44:31;;;;;;;42.28;23.50;;;;;;;4.82;100.00;101051.56;4882250;29;20055;-72
2022/01/08 13:47:27;;;;;;;43.10;24.50;;;;;;;4.85;100.00;101051.63;4882362;29;20069;-73
2022/01/08 13:50:17;;;;;;;42.83;24.58;;;;;;;4.88;100.00;101045.59;4882701;29;20028;-72
2022/01/08 13:53:15;;;;;;;41.55;23.20;;;;;;;4.64;100.00;101048.78;4882948;29;20565;-72
2022/01/08 13:56:01;;;;;;;45.63;23.88;;;;;;;4.91;100.00;101056.00;4882660;29;20029;-72
2022/01/08 13:58:47;;;;;;;46.00;24.25;;;;;;;4.86;100.00;101045.56;4882963;29;20518;-72
2022/01/08 14:01:47;;;;;;;49.60;26.77;;;;;;;4.97;100.00;101048.28;4881938;29;20419;-72
2022/01/08 14:04:33;;;;;;;48.20;26.98;;;;;;;4.90;100.00;101055.13;4882106;29;20455;-71
2022/01/08 14:07:19;;;;;;;49.65;27.35;;;;;;;4.73;100.00;101045.41;4881872;29;20071;-72
2022/01/08 14:10:05;;;;;;;47.13;26.40;;;;;;;4.67;100.00;101050.53;4882336;29;20029;-70
2022/01/08 14:13:06;;;;;;;52.63;26.60;;;;;;;4.65;100.00;101052.25;4883024;29;20364;-71
2022/01/08 14:16:10;;;;;;;50.22;25.77;;;;;;;4.40;100.00;101039.84;4882427;29;20088;-73
2022/01/08 14:19:10;;;;;;;60.78;30.90;;;;;;;4.50;100.00;101039.97;4868922;29;20032;-69